Airfield :
LOGIN :

Register | Disclaimer

   EN    FR    IT 

 










Legend :    VFR   Marginal VFR   IFR   Intensive IFR   Very Intensive IFR
Visi :
Ceiling :
>= 8 km
>= 3000ft
5 to 8 km
1000 to 3000 ft
1500m to 5 km
500 to 1000 ft
800 to 1500m
200 to 500 ft
< 800m
< 200 ft
Symbols :   Thunderstorms  Fog  Heavy snow  Heavy precipitations  Wind > 20 kt
SIGMETs :     Misc.  Thunderstorms  Icing  Turbulence  Mountain Waves  Volcanic Ashes






- Airport Elevation : 776 ft
- IATA code : RMS


ETAR - Ramstein Air Base

CURRENT METAR :
  • 150456Z AUTO 00000KT 9000 BR CLR 10/10 A2973 RMK AO2 VIS 4000 RWY08 SLP070 T01020102 $

EXPIRED METARs :
  • 150356Z AUTO 00000KT 9999 CLR 11/11 A2974 RMK AO2 VIS 1000 RWY09 SLP069 T01070107 $

TAF TAF ETAR
Valid from the 15 at 02:00 until the 16 at 08:00 UTC


150200Z 1502/1608 VRB06KT 9999 SCT090 QNH2979INS
BECMG 1509/1510 26009KT 9999 BKN090 QNH2980INS
BECMG 1513/1514 24009KT 9999 -SHRA BKN020 QNH2981INS
BECMG 1517/1518 25012G20KT 9000 -SHRA BKN020 QNH2985INS
TEMPO 1518/1522 BKN015
BECMG 1602/1603 25009KT 9999 NSW BKN020 QNH2991INS TX21/1512Z TN12/1506Z



MET'MAP, your aeronautical weather chart ! - Copyright ORBIFLY December 2007 - Disclaimer

ORBIFLY MET'MAP TEAM :

Programming & Development : Alexandra Zaïnal
Concept & Development : Baudouin d'Aumeries
Co-Development & Prog : Marc-Olivier Méhu
Technical & hardware support : Manuel Goepfert

Contact : metmap@orbifly.com




SOURCES & CREDITS :

   NOAA